createdAt,value
2018-11-27T00:02:22.061Z,93.40
2018-11-27T00:04:55.566Z,93.50
2018-11-27T00:07:43.966Z,93.70
2018-11-27T00:10:17.354Z,93.70
2018-11-27T00:12:50.973Z,93.80
2018-11-27T00:15:24.536Z,93.90
2018-11-27T00:17:58.757Z,94.30
2018-11-27T00:20:31.658Z,94.10
2018-11-27T00:23:05.113Z,94.10
2018-11-27T00:25:38.710Z,94.30
2018-11-27T00:28:12.120Z,94.30
2018-11-27T00:30:45.508Z,94.20
2018-11-27T00:33:19.059Z,94.30
2018-11-27T00:35:52.545Z,94.30
2018-11-27T00:38:26.179Z,94.30
2018-11-27T00:40:59.737Z,94.30
2018-11-27T00:43:33.054Z,94.30
2018-11-27T00:46:06.796Z,94.30
2018-11-27T00:48:40.373Z,94.30
2018-11-27T00:51:13.874Z,94.30
2018-11-27T00:53:47.415Z,94.20
2018-11-27T00:56:20.976Z,94.20
2018-11-27T00:58:54.409Z,94.20
2018-11-27T01:01:27.929Z,94.20
2018-11-27T01:04:01.304Z,94.20
2018-11-27T01:06:34.606Z,94.20
2018-11-27T01:09:08.437Z,94.30
2018-11-27T01:11:42.567Z,94.20
2018-11-27T01:14:16.072Z,94.30
2018-11-27T01:16:49.497Z,94.40
2018-11-27T01:19:22.791Z,94.50
2018-11-27T01:21:56.177Z,94.60
2018-11-27T01:24:29.639Z,94.60
2018-11-27T01:27:03.724Z,95.00
2018-11-27T01:29:37.193Z,94.60
2018-11-27T01:32:10.728Z,94.70
2018-11-27T01:34:44.245Z,94.90
2018-11-27T01:37:17.749Z,94.90
2018-11-27T01:39:51.250Z,95.00
2018-11-27T01:42:24.888Z,95.00
2018-11-27T01:44:58.558Z,95.10
2018-11-27T01:47:32.057Z,95.10
2018-11-27T01:50:08.689Z,95.10
2018-11-27T01:52:42.126Z,95.10
2018-11-27T01:55:16.580Z,95.20
2018-11-27T01:57:50.821Z,95.20
2018-11-27T02:00:26.163Z,95.20
2018-11-27T02:03:00.492Z,95.30
2018-11-27T02:05:33.862Z,95.30
2018-11-27T02:08:07.315Z,95.60
2018-11-27T02:10:40.736Z,95.40
2018-11-27T02:13:14.397Z,95.40
2018-11-27T02:15:47.864Z,95.60
2018-11-27T02:18:21.309Z,95.60
2018-11-27T02:20:54.994Z,95.60
2018-11-27T02:23:28.776Z,95.70
2018-11-27T02:26:02.406Z,95.80
2018-11-27T02:28:35.999Z,95.80
2018-11-27T02:31:09.367Z,95.70
2018-11-27T02:33:42.915Z,95.80
2018-11-27T02:36:16.211Z,95.70
2018-11-27T02:38:49.743Z,95.70
2018-11-27T02:41:23.226Z,95.70
2018-11-27T02:43:56.842Z,95.60
2018-11-27T02:46:37.410Z,95.60
2018-11-27T02:49:11.044Z,95.60
2018-11-27T02:51:44.648Z,95.60
2018-11-27T02:54:18.154Z,95.60
2018-11-27T02:56:51.675Z,95.50
2018-11-27T02:59:25.054Z,95.30
2018-11-27T03:01:58.531Z,95.10
2018-11-27T03:04:32.034Z,95.00
2018-11-27T03:07:05.565Z,95.00
2018-11-27T03:09:38.991Z,95.00
2018-11-27T03:12:12.640Z,94.80
2018-11-27T03:14:46.037Z,94.80
2018-11-27T03:17:19.729Z,94.80
2018-11-27T03:19:53.220Z,94.70
2018-11-27T03:22:26.744Z,94.60
2018-11-27T03:25:00.257Z,94.50
2018-11-27T03:27:33.839Z,94.50
2018-11-27T03:30:15.160Z,94.40
2018-11-27T03:32:48.787Z,94.40
2018-11-27T03:35:23.065Z,94.40
2018-11-27T03:37:56.509Z,94.40
2018-11-27T03:40:29.838Z,94.20
2018-11-27T03:43:03.390Z,94.40
2018-11-27T03:45:36.870Z,94.30
2018-11-27T03:48:10.263Z,94.40
2018-11-27T03:50:43.897Z,94.20
2018-11-27T03:53:17.416Z,94.10
2018-11-27T03:55:50.915Z,94.20
2018-11-27T03:58:24.596Z,94.20
2018-11-27T04:00:58.197Z,94.10
2018-11-27T04:03:31.800Z,94.00
2018-11-27T04:06:05.350Z,94.00
2018-11-27T04:08:38.838Z,94.00
2018-11-27T04:11:12.463Z,94.00
2018-11-27T04:13:45.930Z,93.90
2018-11-27T04:16:19.460Z,93.90
2018-11-27T04:18:52.925Z,94.00
2018-11-27T04:21:26.350Z,94.00
2018-11-27T04:23:59.881Z,93.90
2018-11-27T04:26:33.494Z,94.00
2018-11-27T04:29:06.910Z,93.90
2018-11-27T04:31:40.539Z,94.00
2018-11-27T04:34:13.944Z,93.90
2018-11-27T04:36:47.558Z,93.90
2018-11-27T04:39:21.160Z,93.90
2018-11-27T04:41:54.639Z,93.90
2018-11-27T04:44:27.999Z,93.80
2018-11-27T04:47:01.483Z,93.90
2018-11-27T04:49:35.309Z,93.90
2018-11-27T04:52:08.972Z,93.80
2018-11-27T04:54:42.469Z,93.80
2018-11-27T04:57:16.043Z,93.90
2018-11-27T04:59:49.784Z,93.90
2018-11-27T05:02:23.477Z,94.00
2018-11-27T05:05:00.083Z,93.90
2018-11-27T05:07:34.366Z,93.90
2018-11-27T05:10:11.981Z,93.90
2018-11-27T05:12:45.425Z,93.80
2018-11-27T05:15:21.922Z,93.90
2018-11-27T05:17:57.223Z,93.90
2018-11-27T05:20:30.682Z,94.00
2018-11-27T05:23:05.512Z,94.10
2018-11-27T05:25:39.172Z,94.00
2018-11-27T05:28:12.669Z,94.10
2018-11-27T05:30:46.042Z,94.00
2018-11-27T05:33:19.443Z,94.00
2018-11-27T05:35:53.061Z,94.00
2018-11-27T05:38:26.692Z,94.10
2018-11-27T05:41:00.396Z,94.10
2018-11-27T05:43:33.815Z,94.00
2018-11-27T05:46:07.181Z,94.00
2018-11-27T05:48:40.805Z,94.00
2018-11-27T05:51:14.470Z,94.00
2018-11-27T05:53:47.930Z,94.00
2018-11-27T05:56:21.674Z,94.10
2018-11-27T05:58:55.306Z,94.00
2018-11-27T06:01:28.986Z,94.10
2018-11-27T06:04:02.537Z,94.10
2018-11-27T06:06:36.120Z,94.00
2018-11-27T06:09:10.021Z,94.00
2018-11-27T06:11:43.541Z,94.10
2018-11-27T06:14:17.062Z,94.20
2018-11-27T06:16:50.454Z,94.10
2018-11-27T06:19:23.746Z,94.10
2018-11-27T06:21:57.261Z,94.20
2018-11-27T06:24:31.088Z,94.40
2018-11-27T06:27:05.431Z,94.20
2018-11-27T06:29:38.853Z,94.30
2018-11-27T06:32:12.356Z,94.30
2018-11-27T06:34:45.880Z,94.30
2018-11-27T06:37:19.344Z,94.40
2018-11-27T06:39:52.806Z,94.40
2018-11-27T06:42:26.478Z,94.40
2018-11-27T06:45:00.131Z,94.40
2018-11-27T06:47:33.684Z,94.40
2018-11-27T06:50:09.080Z,94.40
2018-11-27T06:52:42.781Z,94.30
2018-11-27T06:55:18.644Z,94.30
2018-11-27T06:57:52.388Z,94.40
2018-11-27T07:00:27.860Z,94.40
2018-11-27T07:03:01.302Z,94.40
2018-11-27T07:05:34.748Z,94.40
2018-11-27T07:08:08.486Z,94.40
2018-11-27T07:10:43.343Z,94.40
2018-11-27T07:13:20.606Z,94.40
2018-11-27T07:15:54.010Z,94.40
2018-11-27T07:18:27.600Z,94.40
2018-11-27T07:21:01.264Z,94.40
2018-11-27T07:23:34.801Z,94.40
2018-11-27T07:26:09.346Z,94.40
2018-11-27T07:28:42.933Z,94.50
2018-11-27T07:31:16.752Z,94.40
2018-11-27T07:33:50.635Z,94.40
2018-11-27T07:36:24.077Z,94.40
2018-11-27T07:38:57.655Z,94.40
2018-11-27T07:41:31.167Z,94.40
2018-11-27T07:44:05.105Z,94.60
2018-11-27T07:46:38.636Z,94.70
2018-11-27T07:49:12.103Z,94.40
2018-11-27T07:51:45.502Z,94.40
2018-11-27T07:54:19.032Z,94.40
2018-11-27T07:56:52.755Z,94.40
2018-11-27T07:59:26.179Z,94.40
2018-11-27T08:01:59.647Z,94.40
2018-11-27T08:04:33.454Z,94.40
2018-11-27T08:07:06.951Z,94.50
2018-11-27T08:09:40.548Z,94.40
2018-11-27T08:12:14.168Z,94.50
2018-11-27T08:14:47.753Z,94.40
2018-11-27T08:17:21.262Z,94.30
2018-11-27T08:19:54.858Z,94.20
2018-11-27T08:22:28.553Z,94.20
2018-11-27T08:25:02.077Z,94.40
2018-11-27T08:27:35.758Z,94.50
2018-11-27T08:30:11.760Z,94.10
2018-11-27T08:32:45.511Z,94.10
2018-11-27T08:35:21.783Z,94.10
2018-11-27T08:37:56.572Z,94.10
2018-11-27T08:40:32.373Z,93.90
2018-11-27T08:43:06.529Z,93.70
2018-11-27T08:45:40.110Z,93.90
2018-11-27T08:48:13.715Z,93.90
2018-11-27T08:50:47.193Z,93.70
2018-11-27T08:53:20.832Z,93.50
2018-11-27T08:55:54.486Z,93.70
2018-11-27T08:58:27.929Z,93.70
2018-11-27T09:01:01.365Z,93.60
2018-11-27T09:03:34.940Z,93.40
2018-11-27T09:06:08.359Z,93.50
2018-11-27T09:08:42.421Z,93.50
2018-11-27T09:11:15.859Z,93.30
2018-11-27T09:13:49.285Z,93.30
2018-11-27T09:16:22.604Z,93.10
2018-11-27T09:18:56.151Z,93.10
2018-11-27T09:21:29.714Z,93.20
2018-11-27T09:24:03.394Z,93.20
2018-11-27T09:26:36.897Z,92.90
2018-11-27T09:29:10.343Z,92.80
2018-11-27T09:31:43.946Z,92.80
2018-11-27T09:34:17.458Z,92.70
2018-11-27T09:36:51.146Z,92.70
2018-11-27T09:39:24.764Z,92.70
2018-11-27T09:41:58.376Z,92.80
2018-11-27T09:44:31.950Z,92.60
2018-11-27T09:47:05.565Z,92.70
2018-11-27T09:49:39.155Z,92.60
2018-11-27T09:52:12.717Z,92.60
2018-11-27T09:54:46.285Z,92.30
2018-11-27T09:57:19.746Z,92.10
2018-11-27T09:59:53.080Z,92.20
2018-11-27T10:02:26.431Z,92.30
2018-11-27T10:04:59.981Z,92.10
2018-11-27T10:07:33.557Z,92.00
2018-11-27T10:10:08.510Z,92.10
2018-11-27T10:12:42.082Z,91.90
2018-11-27T10:15:17.263Z,91.90
2018-11-27T10:17:54.976Z,91.80
2018-11-27T10:20:34.739Z,92.10
2018-11-27T10:23:11.387Z,91.90
2018-11-27T10:25:45.098Z,91.70
2018-11-27T10:28:18.763Z,91.90
2018-11-27T10:30:52.335Z,91.80
2018-11-27T10:33:25.754Z,91.60
2018-11-27T10:35:59.451Z,91.40
2018-11-27T10:38:32.909Z,91.30
2018-11-27T10:41:06.310Z,91.20
2018-11-27T10:43:39.809Z,91.10
2018-11-27T10:46:13.299Z,91.00
2018-11-27T10:48:46.795Z,91.00
2018-11-27T10:51:20.509Z,90.60
2018-11-27T10:53:54.073Z,90.80
2018-11-27T10:56:27.642Z,91.00
2018-11-27T10:59:01.094Z,90.80
2018-11-27T11:01:40.138Z,90.40
2018-11-27T11:04:13.734Z,90.30
2018-11-27T11:06:47.330Z,90.40
2018-11-27T11:09:20.882Z,90.30
2018-11-27T11:11:59.155Z,90.10
2018-11-27T11:14:27.959Z,90.10
2018-11-27T11:17:01.501Z,89.70
2018-11-27T11:19:35.023Z,89.90
2018-11-27T11:22:08.430Z,89.70
2018-11-27T11:24:42.068Z,90.00
2018-11-27T11:27:15.618Z,89.30
2018-11-27T11:29:48.960Z,88.20
2018-11-27T11:32:22.373Z,88.30
2018-11-27T11:34:55.766Z,88.50
2018-11-27T11:37:29.299Z,88.30
2018-11-27T11:40:06.625Z,88.30
2018-11-27T11:42:40.187Z,88.30
2018-11-27T11:45:13.726Z,88.10
2018-11-27T11:47:47.183Z,88.10
2018-11-27T11:50:24.777Z,88.70
2018-11-27T11:53:04.585Z,88.90
2018-11-27T11:55:38.146Z,88.80
2018-11-27T11:58:14.532Z,88.80
2018-11-27T12:00:51.125Z,88.80
2018-11-27T12:03:24.770Z,88.90
2018-11-27T12:05:58.535Z,89.40
2018-11-27T12:08:32.021Z,89.70
2018-11-27T12:11:05.520Z,90.00
2018-11-27T12:13:39.152Z,89.90
2018-11-27T12:16:12.721Z,90.00
2018-11-27T12:18:46.284Z,90.00
2018-11-27T12:21:19.778Z,90.10
2018-11-27T12:23:53.213Z,90.10
2018-11-27T12:26:26.819Z,90.40
2018-11-27T12:29:00.549Z,90.00
2018-11-27T12:31:33.946Z,90.10
2018-11-27T12:34:07.569Z,90.00
2018-11-27T12:36:41.209Z,89.70
2018-11-27T12:39:14.745Z,89.90
2018-11-27T12:41:48.805Z,89.90
2018-11-27T12:44:22.768Z,89.80
2018-11-27T12:46:56.368Z,89.40
2018-11-27T12:49:29.964Z,89.00
2018-11-27T12:52:03.465Z,88.90
2018-11-27T12:54:36.939Z,89.00
2018-11-27T12:57:10.506Z,88.50
2018-11-27T12:59:44.091Z,87.70
2018-11-27T13:02:17.766Z,87.90
2018-11-27T13:04:51.286Z,87.90
2018-11-27T13:07:24.806Z,87.20
2018-11-27T13:09:58.241Z,87.30
2018-11-27T13:12:31.751Z,87.40
2018-11-27T13:15:08.226Z,86.80
2018-11-27T13:17:42.038Z,85.60
2018-11-27T13:20:16.519Z,83.80
2018-11-27T13:22:50.887Z,79.70
2018-11-27T13:25:24.851Z,79.90
2018-11-27T13:27:58.962Z,80.80
2018-11-27T13:30:44.669Z,80.50
2018-11-27T13:33:23.098Z,79.70
2018-11-27T13:35:56.653Z,77.70
2018-11-27T13:38:30.289Z,74.70
2018-11-27T13:41:04.904Z,72.10
2018-11-27T13:43:38.591Z,73.20
2018-11-27T13:46:12.280Z,74.50
2018-11-27T13:48:45.815Z,76.10
2018-11-27T13:51:19.525Z,76.60
2018-11-27T13:53:53.061Z,73.80
2018-11-27T13:56:26.616Z,72.20
2018-11-27T13:59:00.211Z,69.30
2018-11-27T14:01:37.624Z,68.50
2018-11-27T14:04:07.469Z,68.70
2018-11-27T14:06:41.226Z,68.90
2018-11-27T14:09:14.893Z,69.60
2018-11-27T14:11:48.563Z,68.40
2018-11-27T14:14:25.602Z,69.00
2018-11-27T14:16:59.429Z,69.30
2018-11-27T14:19:33.243Z,69.50
2018-11-27T14:22:06.841Z,69.70
2018-11-27T14:24:40.589Z,70.50
2018-11-27T14:27:14.351Z,71.10
2018-11-27T14:29:47.842Z,71.70
2018-11-27T14:32:21.671Z,72.10
2018-11-27T14:34:59.905Z,72.60
2018-11-27T14:37:28.630Z,73.60
2018-11-27T14:40:02.691Z,76.10
2018-11-27T14:42:36.362Z,77.60
2018-11-27T14:45:19.181Z,78.30
2018-11-27T14:47:55.987Z,80.50
2018-11-27T14:50:29.435Z,82.80
2018-11-27T14:53:03.084Z,83.10
2018-11-27T14:55:36.733Z,84.30
2018-11-27T14:58:15.030Z,84.20
2018-11-27T15:00:43.987Z,85.50
2018-11-27T15:03:17.669Z,86.00
2018-11-27T15:05:51.039Z,85.20
2018-11-27T15:08:24.722Z,85.80
2018-11-27T15:10:58.245Z,85.60
2018-11-27T15:13:31.612Z,85.60
2018-11-27T15:16:05.429Z,83.40
2018-11-27T15:18:38.926Z,81.10
2018-11-27T15:21:12.616Z,79.80
2018-11-27T15:23:46.224Z,79.70
2018-11-27T15:26:19.690Z,79.00
2018-11-27T15:28:53.649Z,78.90
2018-11-27T15:31:27.066Z,79.80
2018-11-27T15:34:00.721Z,79.70
2018-11-27T15:36:34.357Z,79.90
2018-11-27T15:39:08.957Z,79.70
2018-11-27T15:41:42.666Z,79.90
2018-11-27T15:44:16.166Z,80.20
2018-11-27T15:46:49.804Z,80.90
2018-11-27T15:49:23.177Z,81.30
2018-11-27T15:51:56.745Z,81.60
2018-11-27T15:54:30.106Z,82.20
2018-11-27T15:57:03.530Z,82.20
2018-11-27T15:59:37.070Z,82.20
2018-11-27T16:02:10.524Z,83.30
2018-11-27T16:04:44.967Z,83.10
2018-11-27T16:07:18.672Z,83.20
2018-11-27T16:09:52.295Z,83.40
2018-11-27T16:12:25.669Z,83.80
2018-11-27T16:14:59.161Z,84.20
2018-11-27T16:17:32.761Z,84.50
2018-11-27T16:20:08.914Z,84.70
2018-11-27T16:22:43.429Z,85.10
2018-11-27T16:25:18.937Z,85.80
2018-11-27T16:27:52.630Z,85.90
2018-11-27T16:30:27.347Z,86.30
2018-11-27T16:33:00.792Z,86.30
2018-11-27T16:35:34.292Z,86.30
2018-11-27T16:38:07.846Z,86.40
2018-11-27T16:40:41.355Z,86.20
2018-11-27T16:43:15.008Z,86.60
2018-11-27T16:45:48.661Z,86.20
2018-11-27T16:48:22.113Z,85.80
2018-11-27T16:50:55.656Z,85.40
2018-11-27T16:53:29.223Z,85.10
2018-11-27T16:56:03.181Z,84.90
2018-11-27T16:58:36.088Z,84.80
2018-11-27T17:01:09.602Z,83.30
2018-11-27T17:03:43.341Z,82.90
2018-11-27T17:06:16.787Z,82.40
2018-11-27T17:08:50.221Z,82.30
2018-11-27T17:11:23.609Z,83.20
2018-11-27T17:13:57.046Z,81.50
2018-11-27T17:16:30.666Z,82.10
2018-11-27T17:19:04.294Z,82.50
2018-11-27T17:21:37.935Z,82.60
2018-11-27T17:24:12.588Z,82.80
2018-11-27T17:26:46.056Z,82.20
2018-11-27T17:29:19.687Z,82.80
2018-11-27T17:31:53.233Z,83.80
2018-11-27T17:34:26.657Z,83.90
2018-11-27T17:37:00.266Z,84.30
2018-11-27T17:39:33.677Z,84.90
2018-11-27T17:42:07.260Z,85.60
2018-11-27T17:44:40.855Z,85.90
2018-11-27T17:47:14.416Z,86.40
2018-11-27T17:49:47.945Z,86.40
2018-11-27T17:52:21.473Z,86.70
2018-11-27T17:54:55.133Z,87.30
2018-11-27T17:57:28.704Z,87.30
2018-11-27T18:00:02.343Z,87.30
2018-11-27T18:02:35.905Z,87.40
2018-11-27T18:05:09.341Z,86.70
2018-11-27T18:07:42.868Z,86.70
2018-11-27T18:10:16.434Z,86.90
2018-11-27T18:12:50.067Z,87.10
2018-11-27T18:15:23.479Z,87.40
2018-11-27T18:17:56.872Z,87.70
2018-11-27T18:20:30.473Z,88.00
2018-11-27T18:23:03.863Z,88.40
2018-11-27T18:25:37.265Z,88.80
2018-11-27T18:28:10.755Z,89.20
2018-11-27T18:30:45.629Z,90.00
2018-11-27T18:33:17.954Z,89.90
2018-11-27T18:35:51.491Z,90.00
2018-11-27T18:38:25.094Z,89.10
2018-11-27T18:40:59.013Z,88.90
2018-11-27T18:43:33.478Z,87.50
2018-11-27T18:46:07.814Z,87.20
2018-11-27T18:51:19.212Z,87.20
2018-11-27T18:53:55.096Z,87.20
2018-11-27T18:56:26.294Z,87.30
2018-11-27T18:58:59.902Z,89.60
2018-11-27T19:01:35.676Z,87.90
2018-11-27T19:04:09.673Z,88.00
2018-11-27T19:06:43.691Z,88.10
2018-11-27T19:09:17.535Z,89.20
2018-11-27T19:11:51.277Z,90.00
2018-11-27T19:14:33.337Z,90.60
2018-11-27T19:17:07.211Z,91.10
2018-11-27T19:19:41.450Z,91.60
2018-11-27T19:22:15.407Z,92.00
2018-11-27T19:24:49.271Z,92.40
2018-11-27T19:27:22.870Z,92.70
2018-11-27T19:29:56.594Z,92.90
2018-11-27T19:32:30.017Z,93.00
2018-11-27T19:35:12.886Z,93.20
2018-11-27T19:37:47.428Z,93.20
2018-11-27T19:40:21.110Z,93.20
2018-11-27T19:42:54.810Z,93.40
2018-11-27T19:45:28.346Z,93.40
2018-11-27T19:48:01.771Z,93.40
2018-11-27T19:50:36.062Z,93.50
2018-11-27T19:53:12.208Z,93.60
2018-11-27T19:55:45.849Z,93.70
2018-11-27T19:58:19.462Z,93.70
2018-11-27T20:00:53.768Z,93.70
2018-11-27T20:03:27.205Z,93.70
2018-11-27T20:06:00.711Z,93.70
2018-11-27T20:08:34.334Z,93.90
2018-11-27T20:11:08.108Z,94.00
2018-11-27T20:13:41.647Z,94.00
2018-11-27T20:16:15.105Z,94.20
2018-11-27T20:18:48.835Z,94.20
2018-11-27T20:21:24.565Z,94.20
2018-11-27T20:23:58.318Z,94.40
2018-11-27T20:26:31.817Z,94.30
2018-11-27T20:29:05.880Z,94.60
2018-11-27T20:31:39.430Z,94.40
2018-11-27T20:34:13.100Z,94.30
2018-11-27T20:36:46.664Z,94.10
2018-11-27T20:39:20.302Z,93.80
2018-11-27T20:41:54.017Z,93.60
2018-11-27T20:44:27.486Z,93.50
2018-11-27T20:47:00.981Z,93.40
2018-11-27T20:49:34.561Z,93.00
2018-11-27T20:52:08.064Z,92.30
2018-11-27T20:54:41.763Z,91.30
2018-11-27T20:57:16.387Z,91.00
2018-11-27T20:59:49.961Z,90.80
2018-11-27T21:02:24.586Z,90.10
2018-11-27T21:04:58.190Z,89.30
2018-11-27T21:07:31.891Z,87.80
2018-11-27T21:10:08.185Z,87.50
2018-11-27T21:12:42.401Z,87.20
2018-11-27T21:15:17.657Z,85.80
2018-11-27T21:17:51.465Z,85.00
2018-11-27T21:20:25.086Z,85.50
2018-11-27T21:22:58.833Z,84.70
2018-11-27T21:25:32.287Z,85.00
2018-11-27T21:28:09.254Z,84.50
2018-11-27T21:30:43.978Z,84.10
2018-11-27T21:33:17.498Z,84.30
2018-11-27T21:35:51.428Z,84.20
2018-11-27T21:38:24.943Z,83.60
2018-11-27T21:40:58.867Z,83.50
2018-11-27T21:43:32.706Z,82.90
2018-11-27T21:46:06.434Z,82.90
2018-11-27T21:48:39.974Z,82.50
2018-11-27T21:51:13.741Z,81.70
2018-11-27T21:53:47.193Z,81.60
2018-11-27T21:56:20.673Z,81.50
2018-11-27T21:58:54.221Z,81.30
2018-11-27T22:01:27.942Z,80.70
2018-11-27T22:04:01.639Z,80.70
2018-11-27T22:06:35.831Z,80.70
2018-11-27T22:09:09.834Z,83.80
2018-11-27T22:11:43.421Z,82.30
2018-11-27T22:14:16.864Z,83.90
2018-11-27T22:16:50.333Z,84.40
2018-11-27T22:19:24.156Z,80.50
2018-11-27T22:21:57.643Z,81.90
2018-11-27T22:24:31.302Z,79.90
2018-11-27T22:27:05.064Z,81.10
2018-11-27T22:29:38.642Z,78.70
2018-11-27T22:32:12.759Z,80.60
2018-11-27T22:34:46.331Z,79.50
2018-11-27T22:37:19.834Z,79.30
2018-11-27T22:39:53.166Z,81.00
2018-11-27T22:42:26.770Z,80.20
2018-11-27T22:45:00.182Z,81.50
2018-11-27T22:47:33.731Z,81.60
2018-11-27T22:50:12.247Z,81.30
2018-11-27T22:52:45.626Z,81.60
2018-11-27T22:55:19.108Z,82.00
2018-11-27T22:57:52.598Z,80.50
2018-11-27T23:00:32.503Z,81.10
2018-11-27T23:03:06.105Z,82.00
2018-11-27T23:05:39.818Z,83.00
2018-11-27T23:08:13.698Z,83.80
2018-11-27T23:10:48.316Z,84.80
2018-11-27T23:13:21.719Z,85.10
2018-11-27T23:15:55.270Z,85.80
2018-11-27T23:18:28.695Z,86.40
2018-11-27T23:21:02.550Z,86.70
2018-11-27T23:23:36.171Z,87.10
2018-11-27T23:26:09.868Z,87.80
2018-11-27T23:28:43.522Z,87.40
2018-11-27T23:31:17.110Z,87.90
2018-11-27T23:33:51.221Z,88.10
2018-11-27T23:36:24.866Z,88.40
2018-11-27T23:38:58.430Z,89.00
2018-11-27T23:41:32.641Z,89.00
2018-11-27T23:44:12.882Z,89.30
2018-11-27T23:46:46.538Z,89.50
2018-11-27T23:49:20.292Z,89.90
2018-11-27T23:51:53.890Z,89.90
2018-11-27T23:54:27.461Z,90.00
2018-11-27T23:57:01.077Z,90.20
2018-11-27T23:59:34.591Z,90.30
